createdAt,value
2018-10-11T00:00:57.735Z,1007.58
2018-10-11T00:01:58.314Z,1007.54
2018-10-11T00:02:58.895Z,1007.44
2018-10-11T00:03:59.481Z,1007.55
2018-10-11T00:05:00.057Z,1007.46
2018-10-11T00:06:00.681Z,1007.44
2018-10-11T00:07:01.300Z,1007.49
2018-10-11T00:08:01.879Z,1007.38
2018-10-11T00:09:02.507Z,1007.40
2018-10-11T00:10:03.138Z,1007.34
2018-10-11T00:11:03.718Z,1007.29
2018-10-11T00:12:04.299Z,1007.34
2018-10-11T00:13:04.881Z,1007.35
2018-10-11T00:14:05.461Z,1007.32
2018-10-11T00:15:06.042Z,1007.35
2018-10-11T00:16:06.671Z,1007.34
2018-10-11T00:17:07.251Z,1007.28
2018-10-11T00:18:07.831Z,1007.31
2018-10-11T00:19:08.411Z,1007.22
2018-10-11T00:20:09.090Z,1007.22
2018-10-11T00:21:09.570Z,1007.30
2018-10-11T00:22:10.147Z,1007.24
2018-10-11T00:23:10.728Z,1007.22
2018-10-11T00:24:11.355Z,1007.27
2018-10-11T00:25:11.987Z,1007.26
2018-10-11T00:26:12.564Z,1007.21
2018-10-11T00:27:13.143Z,1007.21
2018-10-11T00:28:13.722Z,1007.13
2018-10-11T00:29:14.301Z,1007.13
2018-10-11T00:30:14.884Z,1007.15
2018-10-11T00:31:15.506Z,1007.20
2018-10-11T00:32:16.127Z,1007.23
2018-10-11T00:33:16.757Z,1007.22
2018-10-11T00:34:17.337Z,1007.22
2018-10-11T00:35:17.918Z,1007.26
2018-10-11T00:36:18.498Z,1007.36
2018-10-11T00:37:19.080Z,1007.39
2018-10-11T00:38:19.701Z,1007.34
2018-10-11T00:39:20.280Z,1007.32
2018-10-11T00:40:20.860Z,1007.27
2018-10-11T00:41:21.489Z,1007.36
2018-10-11T00:42:22.068Z,1007.35
2018-10-11T00:43:22.646Z,1007.44
2018-10-11T00:44:23.228Z,1007.43
2018-10-11T00:45:23.808Z,1007.46
2018-10-11T00:46:24.386Z,1007.43
2018-10-11T00:47:25.015Z,1007.39
2018-10-11T00:48:25.595Z,1007.40
2018-10-11T00:49:26.243Z,1007.36
2018-10-11T00:50:26.806Z,1007.38
2018-10-11T00:51:27.385Z,1007.34
2018-10-11T00:52:27.962Z,1007.40
2018-10-11T00:53:28.542Z,1007.39
2018-10-11T00:54:29.125Z,1007.48
2018-10-11T00:55:29.703Z,1007.48
2018-10-11T00:56:30.282Z,1007.53
2018-10-11T00:57:30.912Z,1007.59
2018-10-11T00:58:31.493Z,1007.59
2018-10-11T00:59:32.074Z,1007.56
2018-10-11T01:00:32.651Z,1007.59
2018-10-11T01:01:33.280Z,1007.61
2018-10-11T01:02:33.861Z,1007.67
2018-10-11T01:03:34.437Z,1007.64
2018-10-11T01:04:35.069Z,1007.68
2018-10-11T01:05:35.649Z,1007.73
2018-10-11T01:06:36.228Z,1007.75
2018-10-11T01:07:36.807Z,1007.73
2018-10-11T01:08:37.439Z,1007.75
2018-10-11T01:09:38.020Z,1007.77
2018-10-11T01:10:38.597Z,1007.86
2018-10-11T01:11:39.177Z,1007.77
2018-10-11T01:12:39.806Z,1007.87
2018-10-11T01:13:40.391Z,1007.82
2018-10-11T01:14:40.968Z,1007.87
2018-10-11T01:15:41.549Z,1007.93
2018-10-11T01:16:42.128Z,1007.93
2018-10-11T01:17:42.706Z,1007.86
2018-10-11T01:18:43.283Z,1007.76
2018-10-11T01:19:43.912Z,1007.74
2018-10-11T01:20:44.498Z,1007.64
2018-10-11T01:21:45.069Z,1007.68
2018-10-11T01:22:45.647Z,1007.51
2018-10-11T01:23:46.279Z,1007.40
2018-10-11T01:24:46.804Z,1007.38
2018-10-11T01:25:47.433Z,1007.32
2018-10-11T01:26:48.022Z,1007.23
2018-10-11T01:27:48.593Z,1007.27
2018-10-11T01:28:49.222Z,1007.27
2018-10-11T01:29:49.888Z,1007.10
2018-10-11T01:30:50.380Z,1006.95
2018-10-11T01:31:50.957Z,1007.08
2018-10-11T01:32:51.539Z,1006.92
2018-10-11T01:33:52.118Z,1006.76
2018-10-11T01:34:52.696Z,1006.79
2018-10-11T01:35:53.279Z,1006.73
2018-10-11T01:36:53.857Z,1006.57
2018-10-11T01:37:54.436Z,1006.64
2018-10-11T01:38:55.016Z,1006.54
2018-10-11T01:39:55.646Z,1006.48
2018-10-11T01:40:56.227Z,1006.51
2018-10-11T01:41:56.806Z,1006.46
2018-10-11T01:42:57.435Z,1006.37
2018-10-11T01:43:58.050Z,1006.39
2018-10-11T01:44:58.685Z,1006.38
2018-10-11T01:45:59.321Z,1006.45
2018-10-11T01:46:59.947Z,1006.44
2018-10-11T01:48:00.525Z,1006.54
2018-10-11T01:49:01.106Z,1006.60
2018-10-11T01:50:01.688Z,1006.65
2018-10-11T01:51:02.306Z,1006.61
2018-10-11T01:52:02.884Z,1006.59
2018-10-11T01:53:03.462Z,1006.68
2018-10-11T01:54:04.039Z,1006.70
2018-10-11T01:55:04.618Z,1006.73
2018-10-11T01:56:05.200Z,1006.76
2018-10-11T01:57:05.821Z,1006.80
2018-10-11T01:58:06.403Z,1006.84
2018-10-11T01:59:06.982Z,1006.86
2018-10-11T02:00:07.563Z,1006.92
2018-10-11T02:01:08.140Z,1006.94
2018-10-11T02:02:08.718Z,1007.03
2018-10-11T02:03:09.452Z,1007.07
2018-10-11T02:04:10.025Z,1007.00
2018-10-11T02:05:10.654Z,1007.01
2018-10-11T02:06:11.233Z,1006.96
2018-10-11T02:07:11.813Z,1007.01
2018-10-11T02:08:12.441Z,1007.01
2018-10-11T02:09:13.023Z,1006.94
2018-10-11T02:10:13.644Z,1006.93
2018-10-11T02:11:14.226Z,1006.91
2018-10-11T02:12:14.805Z,1006.90
2018-10-11T02:13:15.383Z,1006.82
2018-10-11T02:14:15.964Z,1006.73
2018-10-11T02:15:16.546Z,1006.63
2018-10-11T02:16:17.121Z,1006.70
2018-10-11T02:17:17.702Z,1006.72
2018-10-11T02:18:18.282Z,1006.68
2018-10-11T02:19:18.862Z,1006.68
2018-10-11T02:20:19.442Z,1006.72
2018-10-11T02:21:20.022Z,1006.77
2018-10-11T02:22:20.601Z,1006.79
2018-10-11T02:23:21.180Z,1006.81
2018-10-11T02:24:21.809Z,1006.83
2018-10-11T02:25:22.391Z,1006.84
2018-10-11T02:26:22.970Z,1006.79
2018-10-11T02:27:23.699Z,1006.80
2018-10-11T02:28:24.328Z,1006.88
2018-10-11T02:29:24.950Z,1006.81
2018-10-11T02:30:25.489Z,1006.79
2018-10-11T02:31:26.070Z,1006.73
2018-10-11T02:32:26.646Z,1006.84
2018-10-11T02:33:27.228Z,1006.84
2018-10-11T02:34:27.802Z,1006.72
2018-10-11T02:35:28.380Z,1006.76
2018-10-11T02:36:28.957Z,1006.70
2018-10-11T02:37:29.535Z,1006.57
2018-10-11T02:38:30.114Z,1006.58
2018-10-11T02:39:30.691Z,1006.55
2018-10-11T02:40:31.269Z,1006.59
2018-10-11T02:41:31.848Z,1006.60
2018-10-11T02:42:32.430Z,1006.54
2018-10-11T02:43:33.011Z,1006.61
2018-10-11T02:44:33.643Z,1006.68
2018-10-11T02:45:34.270Z,1006.77
2018-10-11T02:46:34.898Z,1006.68
2018-10-11T02:47:35.475Z,1006.71
2018-10-11T02:48:36.052Z,1006.76
2018-10-11T02:49:36.631Z,1006.69
2018-10-11T02:50:37.209Z,1006.75
2018-10-11T02:51:37.789Z,1006.73
2018-10-11T02:52:38.369Z,1006.69
2018-10-11T02:53:38.950Z,1006.68
2018-10-11T02:54:39.529Z,1006.74
2018-10-11T02:55:40.151Z,1006.72
2018-10-11T02:56:40.729Z,1006.61
2018-10-11T02:57:41.308Z,1006.64
2018-10-11T02:58:41.887Z,1006.61
2018-10-11T02:59:42.465Z,1006.56
2018-10-11T03:00:43.044Z,1006.57
2018-10-11T03:01:43.672Z,1006.58
2018-10-11T03:02:44.252Z,1006.64
2018-10-11T03:03:44.883Z,1006.54
2018-10-11T03:04:45.464Z,1006.66
2018-10-11T03:05:46.049Z,1006.65
2018-10-11T03:06:46.819Z,1006.64
2018-10-11T03:07:47.399Z,1006.53
2018-10-11T03:08:47.977Z,1006.53
2018-10-11T03:09:48.559Z,1006.59
2018-10-11T03:10:49.179Z,1006.57
2018-10-11T03:11:49.760Z,1006.56
2018-10-11T03:12:50.342Z,1006.55
2018-10-11T03:13:50.920Z,1006.61
2018-10-11T03:14:51.500Z,1006.54
2018-10-11T03:15:52.078Z,1006.42
2018-10-11T03:16:52.656Z,1006.38
2018-10-11T03:17:53.235Z,1006.51
2018-10-11T03:18:53.815Z,1006.40
2018-10-11T03:19:54.396Z,1006.48
2018-10-11T03:20:55.067Z,1006.54
2018-10-11T03:21:55.697Z,1006.58
2018-10-11T03:22:56.327Z,1006.62
2018-10-11T03:23:56.905Z,1006.65
2018-10-11T03:24:57.485Z,1006.69
2018-10-11T03:25:58.062Z,1006.69
2018-10-11T03:26:58.638Z,1006.59
2018-10-11T03:27:59.267Z,1006.55
2018-10-11T03:28:59.846Z,1006.63
2018-10-11T03:30:00.428Z,1006.53
2018-10-11T03:31:01.054Z,1006.69
2018-10-11T03:32:01.634Z,1006.61
2018-10-11T03:33:02.212Z,1006.67
2018-10-11T03:34:02.791Z,1006.54
2018-10-11T03:35:03.368Z,1006.65
2018-10-11T03:36:03.996Z,1006.60
2018-10-11T03:37:04.578Z,1006.56
2018-10-11T03:38:05.157Z,1006.66
2018-10-11T03:39:05.790Z,1006.65
2018-10-11T03:40:06.416Z,1006.68
2018-10-11T03:41:06.995Z,1006.66
2018-10-11T03:42:07.574Z,1006.71
2018-10-11T03:43:08.195Z,1006.65
2018-10-11T03:44:08.775Z,1006.68
2018-10-11T03:45:09.356Z,1006.74
2018-10-11T03:46:09.935Z,1006.76
2018-10-11T03:47:10.514Z,1006.73
2018-10-11T03:48:11.093Z,1006.64
2018-10-11T03:49:11.673Z,1006.68
2018-10-11T03:50:12.252Z,1006.70
2018-10-11T03:51:12.830Z,1006.69
2018-10-11T03:52:13.408Z,1006.67
2018-10-11T03:53:13.988Z,1006.68
2018-10-11T03:54:14.568Z,1006.64
2018-10-11T03:55:15.148Z,1006.62
2018-10-11T03:56:15.728Z,1006.65
2018-10-11T03:57:16.358Z,1006.68
2018-10-11T03:58:17.083Z,1006.66
2018-10-11T03:59:17.712Z,1006.77
2018-10-11T04:00:18.293Z,1006.69
2018-10-11T04:01:18.871Z,1006.76
2018-10-11T04:02:19.457Z,1006.79
2018-10-11T04:03:20.032Z,1006.73
2018-10-11T04:04:20.605Z,1006.77
2018-10-11T04:05:21.184Z,1006.70
2018-10-11T04:06:21.763Z,1006.67
2018-10-11T04:07:22.374Z,1006.69
2018-10-11T04:08:22.921Z,1006.67
2018-10-11T04:09:23.501Z,1006.72
2018-10-11T04:10:24.081Z,1006.79
2018-10-11T04:11:24.661Z,1006.78
2018-10-11T04:12:25.240Z,1006.80
2018-10-11T04:13:25.870Z,1006.78
2018-10-11T04:14:26.455Z,1006.68
2018-10-11T04:15:27.082Z,1006.77
2018-10-11T04:16:27.658Z,1006.70
2018-10-11T04:17:28.276Z,1006.71
2018-10-11T04:18:28.857Z,1006.73
2018-10-11T04:19:29.479Z,1006.80
2018-10-11T04:20:30.058Z,1006.80
2018-10-11T04:21:30.685Z,1006.81
2018-10-11T04:22:31.264Z,1006.77
2018-10-11T04:23:31.843Z,1006.83
2018-10-11T04:24:32.424Z,1006.72
2018-10-11T04:25:32.997Z,1006.77
2018-10-11T04:26:33.574Z,1006.74
2018-10-11T04:27:34.155Z,1006.71
2018-10-11T04:28:34.784Z,1006.76
2018-10-11T04:29:35.369Z,1006.78
2018-10-11T04:30:35.943Z,1006.75
2018-10-11T04:31:36.519Z,1006.89
2018-10-11T04:32:37.147Z,1006.91
2018-10-11T04:33:37.728Z,1007.02
2018-10-11T04:34:38.358Z,1007.21
2018-10-11T04:35:38.937Z,1007.16
2018-10-11T04:36:39.517Z,1007.16
2018-10-11T04:37:40.097Z,1007.18
2018-10-11T04:38:40.679Z,1007.11
2018-10-11T04:39:41.257Z,1007.14
2018-10-11T04:40:41.839Z,1007.13
2018-10-11T04:41:42.417Z,1007.17
2018-10-11T04:42:43.063Z,1007.13
2018-10-11T04:43:43.624Z,1007.17
2018-10-11T04:44:44.203Z,1007.15
2018-10-11T04:45:44.783Z,1007.18
2018-10-11T04:46:45.411Z,1007.34
2018-10-11T04:47:45.991Z,1007.25
2018-10-11T04:48:46.568Z,1007.31
2018-10-11T04:49:47.147Z,1007.22
2018-10-11T04:50:47.729Z,1007.34
2018-10-11T04:51:48.399Z,1007.43
2018-10-11T04:52:48.979Z,1007.40
2018-10-11T04:53:49.558Z,1007.47
2018-10-11T04:54:50.139Z,1007.55
2018-10-11T04:55:50.725Z,1007.56
2018-10-11T04:56:51.297Z,1007.63
2018-10-11T04:57:51.876Z,1007.70
2018-10-11T04:58:52.455Z,1007.62
2018-10-11T04:59:53.111Z,1007.72
2018-10-11T05:00:53.653Z,1007.81
2018-10-11T05:01:54.234Z,1007.83
2018-10-11T05:02:54.909Z,1007.88
2018-10-11T05:03:55.531Z,1007.92
2018-10-11T05:04:56.108Z,1007.96
2018-10-11T05:05:56.687Z,1008.13
2018-10-11T05:06:57.265Z,1008.21
2018-10-11T05:07:57.895Z,1008.24
2018-10-11T05:08:58.472Z,1008.31
2018-10-11T05:09:59.052Z,1008.45
2018-10-11T05:10:59.680Z,1008.41
2018-10-11T05:12:00.259Z,1008.38
2018-10-11T05:13:00.842Z,1008.45
2018-10-11T05:14:01.621Z,1008.47
2018-10-11T05:15:02.204Z,1008.54
2018-10-11T05:16:02.776Z,1008.52
2018-10-11T05:17:03.387Z,1008.53
2018-10-11T05:18:03.936Z,1008.42
2018-10-11T05:19:04.667Z,1008.46
2018-10-11T05:20:05.248Z,1008.49
2018-10-11T05:21:05.828Z,1008.52
2018-10-11T05:22:06.407Z,1008.45
2018-10-11T05:23:06.987Z,1008.45
2018-10-11T05:24:07.565Z,1008.56
2018-10-11T05:25:08.145Z,1008.50
2018-10-11T05:26:08.728Z,1008.51
2018-10-11T05:27:09.389Z,1008.59
2018-10-11T05:28:10.019Z,1008.61
2018-10-11T05:29:10.599Z,1008.71
2018-10-11T05:30:11.178Z,1008.70
2018-10-11T05:31:11.858Z,1008.70
2018-10-11T05:32:12.503Z,1008.76
2018-10-11T05:33:13.063Z,1008.74
2018-10-11T05:34:13.642Z,1008.74
2018-10-11T05:35:14.222Z,1008.77
2018-10-11T05:36:14.945Z,1008.68
2018-10-11T05:37:15.523Z,1008.71
2018-10-11T05:38:16.181Z,1008.84
2018-10-11T05:39:16.679Z,1008.69
2018-10-11T05:40:17.261Z,1008.66
2018-10-11T05:41:17.842Z,1008.69
2018-10-11T05:42:18.419Z,1008.72
2018-10-11T05:43:19.001Z,1008.54
2018-10-11T05:44:19.614Z,1008.57
2018-10-11T05:45:20.155Z,1008.65
2018-10-11T05:46:20.783Z,1008.64
2018-10-11T05:47:21.361Z,1008.70
2018-10-11T05:48:21.942Z,1008.58
2018-10-11T05:49:22.520Z,1008.68
2018-10-11T05:50:23.176Z,1008.71
2018-10-11T05:51:23.679Z,1008.65
2018-10-11T05:52:24.257Z,1008.69
2018-10-11T05:53:24.887Z,1008.68
2018-10-11T05:54:25.517Z,1008.67
2018-10-11T05:55:26.096Z,1008.72
2018-10-11T05:56:26.715Z,1008.72
2018-10-11T05:57:27.290Z,1008.66
2018-10-11T05:58:27.868Z,1008.64
2018-10-11T05:59:28.446Z,1008.60
2018-10-11T06:00:29.023Z,1008.75
2018-10-11T06:01:29.600Z,1008.84
2018-10-11T06:02:30.179Z,1008.84
2018-10-11T06:03:30.759Z,1009.00
2018-10-11T06:04:31.339Z,1008.98
2018-10-11T06:05:31.916Z,1008.96
2018-10-11T06:06:32.499Z,1008.91
2018-10-11T06:07:33.224Z,1008.86
2018-10-11T06:08:33.853Z,1008.87
2018-10-11T06:09:34.431Z,1008.91
2018-10-11T06:10:35.013Z,1008.88
2018-10-11T06:11:35.640Z,1008.95
2018-10-11T06:12:36.221Z,1008.91
2018-10-11T06:13:36.804Z,1008.95
2018-10-11T06:14:37.382Z,1008.95
2018-10-11T06:15:37.963Z,1009.04
2018-10-11T06:16:38.539Z,1009.04
2018-10-11T06:17:39.160Z,1009.07
2018-10-11T06:18:39.698Z,1008.99
2018-10-11T06:19:40.277Z,1009.01
2018-10-11T06:20:40.859Z,1008.99
2018-10-11T06:21:41.436Z,1009.02
2018-10-11T06:22:42.017Z,1009.07
2018-10-11T06:23:42.647Z,1008.99
2018-10-11T06:24:43.228Z,1009.06
2018-10-11T06:25:43.805Z,1009.01
2018-10-11T06:26:44.428Z,1009.11
2018-10-11T06:27:45.013Z,1009.09
2018-10-11T06:28:45.628Z,1009.06
2018-10-11T06:29:46.208Z,1009.03
2018-10-11T06:30:46.785Z,1009.09
2018-10-11T06:31:47.365Z,1009.04
2018-10-11T06:32:47.942Z,1009.01
2018-10-11T06:33:48.570Z,1009.02
2018-10-11T06:34:49.150Z,1009.02
2018-10-11T06:35:49.786Z,1009.01
2018-10-11T06:36:50.309Z,1008.97
2018-10-11T06:37:50.886Z,1008.95
2018-10-11T06:38:51.508Z,1009.07
2018-10-11T06:39:52.087Z,1009.07
2018-10-11T06:40:52.665Z,1009.01
2018-10-11T06:41:53.382Z,1009.16
2018-10-11T06:42:53.911Z,1009.12
2018-10-11T06:43:54.491Z,1009.15
2018-10-11T06:44:55.113Z,1009.12
2018-10-11T06:45:55.691Z,1009.04
2018-10-11T06:46:56.268Z,1009.02
2018-10-11T06:47:56.846Z,1009.12
2018-10-11T06:48:57.431Z,1009.09
2018-10-11T06:49:58.126Z,1009.14
2018-10-11T06:50:58.737Z,1009.18
2018-10-11T06:51:59.313Z,1009.23
2018-10-11T06:52:59.891Z,1009.24
2018-10-11T06:54:00.470Z,1009.30
2018-10-11T06:55:01.052Z,1009.31
2018-10-11T06:56:01.649Z,1009.27
2018-10-11T06:57:02.206Z,1009.33
2018-10-11T06:58:02.935Z,1009.34
2018-10-11T06:59:03.515Z,1009.37
2018-10-11T07:00:04.098Z,1009.41
2018-10-11T07:01:04.675Z,1009.32
2018-10-11T07:02:05.255Z,1009.30
2018-10-11T07:03:05.835Z,1009.30
2018-10-11T07:04:06.411Z,1009.26
2018-10-11T07:05:06.989Z,1009.27
2018-10-11T07:06:07.568Z,1009.42
2018-10-11T07:07:08.151Z,1009.48
2018-10-11T07:08:08.732Z,1009.47
2018-10-11T07:09:09.308Z,1009.51
2018-10-11T07:10:09.935Z,1009.54
2018-10-11T07:11:10.513Z,1009.57
2018-10-11T07:12:11.093Z,1009.57
2018-10-11T07:13:11.673Z,1009.47
2018-10-11T07:14:12.305Z,1009.53
2018-10-11T07:15:12.882Z,1009.60
2018-10-11T07:16:13.460Z,1009.62
2018-10-11T07:17:14.039Z,1009.64
2018-10-11T07:18:14.669Z,1009.62
2018-10-11T07:19:15.279Z,1009.60
2018-10-11T07:20:15.824Z,1009.62
2018-10-11T07:21:16.401Z,1009.68
2018-10-11T07:22:16.981Z,1009.64
2018-10-11T07:23:17.560Z,1009.60
2018-10-11T07:24:18.137Z,1009.67
2018-10-11T07:25:18.717Z,1009.81
2018-10-11T07:26:19.340Z,1009.87
2018-10-11T07:27:19.919Z,1009.88
2018-10-11T07:28:20.548Z,1009.93
2018-10-11T07:29:21.176Z,1010.01
2018-10-11T07:30:21.753Z,1010.07
2018-10-11T07:31:22.332Z,1010.10
2018-10-11T07:32:22.909Z,1010.14
2018-10-11T07:33:23.491Z,1010.22
2018-10-11T07:34:24.111Z,1010.34
2018-10-11T07:35:24.727Z,1010.34
2018-10-11T07:36:25.224Z,1010.38
2018-10-11T07:37:25.853Z,1010.34
2018-10-11T07:38:26.432Z,1010.35
2018-10-11T07:39:27.010Z,1010.32
2018-10-11T07:40:27.694Z,1010.41
2018-10-11T07:41:28.208Z,1010.47
2018-10-11T07:42:28.787Z,1010.52
2018-10-11T07:43:29.370Z,1010.70
2018-10-11T07:44:29.996Z,1010.82
2018-10-11T07:45:30.627Z,1010.82
2018-10-11T07:46:31.202Z,1010.83
2018-10-11T07:47:31.781Z,1010.74
2018-10-11T07:48:32.358Z,1010.66
2018-10-11T07:49:32.934Z,1010.52
2018-10-11T07:50:33.512Z,1010.49
2018-10-11T07:51:34.092Z,1010.47
2018-10-11T07:52:34.675Z,1010.55
2018-10-11T07:53:35.294Z,1010.55
2018-10-11T07:54:35.880Z,1010.66
2018-10-11T07:55:36.500Z,1010.70
2018-10-11T07:56:37.078Z,1010.67
2018-10-11T07:57:37.657Z,1010.75
2018-10-11T07:58:38.278Z,1010.81
2018-10-11T07:59:38.858Z,1010.85
2018-10-11T08:00:39.436Z,1010.92
2018-10-11T08:01:40.074Z,1011.06
2018-10-11T08:02:40.647Z,1011.14
2018-10-11T08:03:41.270Z,1011.09
2018-10-11T08:04:41.899Z,1011.10
2018-10-11T08:05:42.479Z,1011.11
2018-10-11T08:06:43.057Z,1011.10
2018-10-11T08:07:43.718Z,1011.06
2018-10-11T08:08:44.256Z,1011.14
2018-10-11T08:09:44.837Z,1011.10
2018-10-11T08:10:45.438Z,1011.17
2018-10-11T08:11:46.292Z,1011.18
2018-10-11T08:12:46.724Z,1011.17
2018-10-11T08:13:47.306Z,1011.20
2018-10-11T08:14:47.880Z,1011.19
2018-10-11T08:15:48.461Z,1011.19
2018-10-11T08:16:49.212Z,1011.20
2018-10-11T08:17:49.950Z,1011.20
2018-10-11T08:18:50.220Z,1011.19
2018-10-11T08:19:50.893Z,1011.26
2018-10-11T08:20:51.400Z,1011.18
2018-10-11T08:21:51.977Z,1011.19
2018-10-11T08:22:52.554Z,1011.14
2018-10-11T08:23:53.183Z,1011.14
2018-10-11T08:24:53.854Z,1011.12
2018-10-11T08:25:54.740Z,1011.19
2018-10-11T08:26:55.025Z,1011.12
2018-10-11T08:27:55.539Z,1011.19
2018-10-11T08:28:56.168Z,1011.28
2018-10-11T08:29:56.745Z,1011.32
2018-10-11T08:30:57.325Z,1011.31
2018-10-11T08:31:57.904Z,1011.37
2018-10-11T08:32:58.527Z,1011.38
2018-10-11T08:33:59.063Z,1011.38
2018-10-11T08:34:59.640Z,1011.29
2018-10-11T08:36:00.220Z,1011.22
2018-10-11T08:37:00.847Z,1011.22
2018-10-11T08:38:01.619Z,1011.27
2018-10-11T08:39:02.007Z,1011.26
2018-10-11T08:40:02.585Z,1011.22
2018-10-11T08:41:03.257Z,1011.18
2018-10-11T08:42:03.839Z,1011.06
2018-10-11T08:43:04.417Z,1011.04
2018-10-11T08:44:05.049Z,1011.05
2018-10-11T08:45:05.576Z,1011.04
2018-10-11T08:46:06.158Z,1011.04
2018-10-11T08:47:06.736Z,1011.06
2018-10-11T08:48:07.415Z,1011.16
2018-10-11T08:49:08.054Z,1011.17
2018-10-11T08:50:08.627Z,1011.23
2018-10-11T08:51:09.208Z,1011.17
2018-10-11T08:52:09.783Z,1011.14
2018-10-11T08:53:10.362Z,1011.24
2018-10-11T08:54:10.941Z,1011.29
2018-10-11T08:55:11.518Z,1011.32
2018-10-11T08:56:12.156Z,1011.38
2018-10-11T08:57:12.733Z,1011.42
2018-10-11T08:58:13.311Z,1011.45
2018-10-11T08:59:13.927Z,1011.47
2018-10-11T09:00:14.518Z,1011.44
2018-10-11T09:01:15.097Z,1011.46
2018-10-11T09:02:15.677Z,1011.43
2018-10-11T09:03:16.328Z,1011.40
2018-10-11T09:04:16.948Z,1011.40
2018-10-11T09:05:17.522Z,1011.38
2018-10-11T09:06:18.047Z,1011.47
2018-10-11T09:07:18.628Z,1011.52
2018-10-11T09:08:19.206Z,1011.52
2018-10-11T09:09:19.790Z,1011.59
2018-10-11T09:10:20.366Z,1011.62
2018-10-11T09:11:21.016Z,1011.57
2018-10-11T09:12:21.579Z,1011.52
2018-10-11T09:13:22.206Z,1011.62
2018-10-11T09:14:22.785Z,1011.55
2018-10-11T09:15:23.366Z,1011.71
2018-10-11T09:16:23.946Z,1011.73
2018-10-11T09:17:24.592Z,1011.78
2018-10-11T09:18:25.153Z,1011.82
2018-10-11T09:19:25.735Z,1011.83
2018-10-11T09:20:26.315Z,1012.03
2018-10-11T09:21:26.896Z,1012.04
2018-10-11T09:22:27.478Z,1011.94
2018-10-11T09:23:28.057Z,1012.08
2018-10-11T09:24:28.640Z,1012.02
2018-10-11T09:25:29.219Z,1011.97
2018-10-11T09:26:29.801Z,1012.03
2018-10-11T09:27:30.421Z,1011.93
2018-10-11T09:28:31.050Z,1012.02
2018-10-11T09:29:31.630Z,1011.99
2018-10-11T09:30:32.311Z,1011.99
2018-10-11T09:31:32.791Z,1011.99
2018-10-11T09:32:33.371Z,1012.01
2018-10-11T09:33:33.949Z,1011.99
2018-10-11T09:34:34.577Z,1011.96
2018-10-11T09:35:35.212Z,1012.08
2018-10-11T09:36:35.817Z,1011.92
2018-10-11T09:37:36.405Z,1011.95
2018-10-11T09:38:36.985Z,1011.96
2018-10-11T09:39:37.567Z,1011.97
2018-10-11T09:40:38.149Z,1011.89
2018-10-11T09:41:38.729Z,1011.93
2018-10-11T09:42:39.351Z,1011.87
2018-10-11T09:43:39.932Z,1011.85
2018-10-11T09:44:40.515Z,1011.94
2018-10-11T09:45:41.169Z,1011.88
2018-10-11T09:46:41.720Z,1011.93
2018-10-11T09:47:42.300Z,1011.97
2018-10-11T09:48:42.890Z,1011.98
2018-10-11T09:49:43.508Z,1011.94
2018-10-11T09:50:44.091Z,1012.03
2018-10-11T09:51:44.666Z,1011.98
2018-10-11T09:52:45.248Z,1011.98
2018-10-11T09:53:45.827Z,1012.03
2018-10-11T09:54:46.414Z,1012.06
2018-10-11T09:55:47.078Z,1012.08
2018-10-11T09:56:47.654Z,1012.03
2018-10-11T09:57:48.236Z,1012.08
2018-10-11T09:58:48.813Z,1012.19
2018-10-11T09:59:49.391Z,1012.15
2018-10-11T10:00:49.969Z,1012.27
2018-10-11T10:01:50.594Z,1012.27
2018-10-11T10:02:51.129Z,1012.27
2018-10-11T10:03:51.710Z,1012.16
2018-10-11T10:04:52.294Z,1012.20
2018-10-11T10:05:52.920Z,1012.16
2018-10-11T10:06:53.651Z,1012.13
2018-10-11T10:07:54.230Z,1012.18
2018-10-11T10:08:54.812Z,1012.11
2018-10-11T10:09:55.505Z,1012.28
2018-10-11T10:10:56.070Z,1012.34
2018-10-11T10:11:56.653Z,1012.35
2018-10-11T10:12:57.275Z,1012.37
2018-10-11T10:13:57.853Z,1012.35
2018-10-11T10:14:58.434Z,1012.35
2018-10-11T10:15:59.014Z,1012.42
2018-10-11T10:16:59.596Z,1012.29
2018-10-11T10:18:00.176Z,1012.26
2018-10-11T10:19:00.758Z,1012.25
2018-10-11T10:20:01.337Z,1012.28
2018-10-11T10:21:01.981Z,1012.21
2018-10-11T10:22:02.541Z,1012.18
2018-10-11T10:23:03.123Z,1012.25
2018-10-11T10:24:03.704Z,1012.18
2018-10-11T10:25:04.284Z,1012.14
2018-10-11T10:26:04.920Z,1012.12
2018-10-11T10:27:05.542Z,1012.21
2018-10-11T10:28:06.127Z,1012.25
2018-10-11T10:29:06.708Z,1012.26
2018-10-11T10:30:07.341Z,1012.31
2018-10-11T10:31:07.920Z,1012.20
2018-10-11T10:32:08.500Z,1012.25
2018-10-11T10:33:09.083Z,1012.22
2018-10-11T10:34:09.663Z,1012.25
2018-10-11T10:35:10.241Z,1012.26
2018-10-11T10:36:10.820Z,1012.18
2018-10-11T10:37:11.410Z,1012.23
2018-10-11T10:38:11.977Z,1012.25
2018-10-11T10:39:12.555Z,1012.28
2018-10-11T10:40:13.135Z,1012.23
2018-10-11T10:41:13.715Z,1012.20
2018-10-11T10:42:14.298Z,1012.23
2018-10-11T10:43:14.877Z,1012.28
2018-10-11T10:44:15.457Z,1012.27
2018-10-11T10:45:16.038Z,1012.20
2018-10-11T10:46:16.617Z,1012.18
2018-10-11T10:47:17.257Z,1012.13
2018-10-11T10:48:17.924Z,1012.11
2018-10-11T10:49:18.505Z,1012.05
2018-10-11T10:50:19.088Z,1012.06
2018-10-11T10:51:19.716Z,1012.08
2018-10-11T10:52:20.298Z,1012.08
2018-10-11T10:53:20.881Z,1012.02
2018-10-11T10:54:21.523Z,1011.99
2018-10-11T10:55:22.041Z,1012.00
2018-10-11T10:56:22.619Z,1012.09
2018-10-11T10:57:23.200Z,1012.18
2018-10-11T10:58:23.822Z,1012.26
2018-10-11T10:59:24.402Z,1012.28
2018-10-11T11:00:24.985Z,1012.23
2018-10-11T11:01:25.564Z,1012.29
2018-10-11T11:02:26.146Z,1012.30
2018-10-11T11:03:26.724Z,1012.28
2018-10-11T11:04:27.304Z,1012.24
2018-10-11T11:05:27.885Z,1012.30
2018-10-11T11:06:28.515Z,1012.14
2018-10-11T11:07:29.354Z,1012.23
2018-10-11T11:08:29.874Z,1012.32
2018-10-11T11:09:30.457Z,1012.31
2018-10-11T11:10:31.086Z,1012.43
2018-10-11T11:11:31.665Z,1012.43
2018-10-11T11:12:32.247Z,1012.44
2018-10-11T11:13:32.826Z,1012.58
2018-10-11T11:14:33.407Z,1012.49
2018-10-11T11:15:33.985Z,1012.60
2018-10-11T11:16:34.565Z,1012.51
2018-10-11T11:17:35.142Z,1012.50
2018-10-11T11:18:35.722Z,1012.43
2018-10-11T11:19:36.303Z,1012.45
2018-10-11T11:20:36.884Z,1012.38
2018-10-11T11:21:37.464Z,1012.28
2018-10-11T11:22:38.044Z,1012.32
2018-10-11T11:23:38.683Z,1012.29
2018-10-11T11:24:39.259Z,1012.44
2018-10-11T11:25:39.841Z,1012.48
2018-10-11T11:26:40.511Z,1012.54
2018-10-11T11:27:41.095Z,1012.54
2018-10-11T11:28:41.673Z,1012.53
2018-10-11T11:29:42.254Z,1012.47
2018-10-11T11:30:42.934Z,1012.53
2018-10-11T11:31:43.612Z,1012.60
2018-10-11T11:32:44.292Z,1012.71
2018-10-11T11:33:44.872Z,1012.72
2018-10-11T11:34:45.453Z,1012.70
2018-10-11T11:35:46.034Z,1012.74
2018-10-11T11:36:46.617Z,1012.75
2018-10-11T11:37:47.201Z,1012.77
2018-10-11T11:38:47.782Z,1012.82
2018-10-11T11:39:48.374Z,1012.83
2018-10-11T11:40:48.989Z,1012.96
2018-10-11T11:41:49.609Z,1012.87
2018-10-11T11:42:50.190Z,1012.96
2018-10-11T11:43:50.771Z,1012.92
2018-10-11T11:44:51.355Z,1012.83
2018-10-11T11:45:52.002Z,1012.93
2018-10-11T11:46:52.567Z,1013.02
2018-10-11T11:47:53.149Z,1013.02
2018-10-11T11:48:53.731Z,1012.95
2018-10-11T11:49:54.365Z,1013.06
2018-10-11T11:50:54.945Z,1013.06
2018-10-11T11:51:55.527Z,1012.95
2018-10-11T11:52:56.110Z,1012.95
2018-10-11T11:53:56.737Z,1012.97
2018-10-11T11:54:57.318Z,1013.00
2018-10-11T11:55:57.899Z,1012.98
2018-10-11T11:56:58.477Z,1013.01
2018-10-11T11:57:59.110Z,1013.03
2018-10-11T11:58:59.672Z,1012.96
2018-10-11T12:00:00.252Z,1013.05
2018-10-11T12:01:00.832Z,1013.00
2018-10-11T12:02:01.450Z,1013.19
2018-10-11T12:03:01.993Z,1013.17
2018-10-11T12:04:02.624Z,1013.16
2018-10-11T12:05:03.299Z,1012.99
2018-10-11T12:06:03.785Z,1013.02
2018-10-11T12:07:04.362Z,1013.08
2018-10-11T12:08:04.942Z,1013.01
2018-10-11T12:09:05.521Z,1013.04
2018-10-11T12:10:06.153Z,1013.15
2018-10-11T12:11:06.782Z,1013.09
2018-10-11T12:12:07.364Z,1013.07
2018-10-11T12:13:07.949Z,1013.07